Time;durP1;ratioP1;P1;durP2;ratioP2;P2;SDS_P1;SDS_P2;PMS_P1;PMS_P2;Temp;Humidity;BMP_temperature;BMP_pressure;BME280_temperature;BME280_humidity;BME280_pressure;Samples;Min_cycle;Max_cycle;Signal;HPM_P1;HPM_P2
2022/10/24 00:01:10;;;;;;;13.63;3.77;;;;;;;-143.84;62.51;45077.63;5089315;28;20522;-75
2022/10/24 00:03:37;;;;;;;18.93;3.53;;;;;;;-143.84;62.80;45073.81;5089622;28;20488;-75
2022/10/24 00:06:06;;;;;;;7.13;2.80;;;;;;;-143.84;62.26;45064.31;5089375;28;20447;-75
2022/10/24 00:08:33;;;;;;;3.10;2.80;;;;;;;-143.84;61.83;45089.06;5089367;28;21086;-75
2022/10/24 00:11:01;;;;;;;5.87;3.53;;;;;;;-143.84;62.12;45073.81;5089762;28;20454;-75
2022/10/24 00:13:29;;;;;;;4.70;2.70;;;;;;;-143.84;61.75;45073.81;5089589;28;20442;-75
2022/10/24 00:15:56;;;;;;;9.70;2.70;;;;;;;-143.84;61.62;45090.97;5089072;28;20440;-75
2022/10/24 00:18:23;;;;;;;9.70;3.93;;;;;;;-143.84;60.85;45075.72;5089363;28;20437;-75
2022/10/24 00:20:50;;;;;;;10.53;3.50;;;;;;;-143.84;60.76;45089.06;5089459;28;20489;-75
2022/10/24 00:23:18;;;;;;;19.40;4.60;;;;;;;-143.84;60.29;45096.66;5089343;28;20436;-75
2022/10/24 00:25:45;;;;;;;17.57;4.40;;;;;;;-143.84;59.90;45096.66;5089436;28;20433;-75
2022/10/24 00:28:12;;;;;;;14.40;3.93;;;;;;;-143.84;59.92;45070.00;5088781;28;20516;-75
2022/10/24 00:30:41;;;;;;;9.57;3.53;;;;;;;-143.84;59.96;45070.00;5089449;28;20424;-75
2022/10/24 00:33:08;;;;;;;8.27;3.00;;;;;;;-143.84;60.58;45056.69;5089175;28;20438;-75
2022/10/24 00:35:35;;;;;;;6.23;2.27;;;;;;;-143.84;61.12;45068.13;5088995;28;20444;-75
2022/10/24 00:38:03;;;;;;;10.60;2.50;;;;;;;-143.84;61.03;45092.88;5089584;28;20995;-75
2022/10/24 00:40:30;;;;;;;2.60;2.33;;;;;;;-143.84;60.92;45085.25;5093048;28;20452;-75
2022/10/24 00:42:57;;;;;;;3.63;2.07;;;;;;;-143.84;61.15;45077.63;5093500;28;20843;-75
2022/10/24 00:45:44;;;;;;;4.47;2.00;;;;;;;-143.84;60.98;45075.72;5092462;28;20444;-75
2022/10/24 00:48:24;;;;;;;3.30;1.53;;;;;;;-143.84;60.90;45083.34;5092747;28;20476;-75
2022/10/24 00:50:54;;;;;;;4.03;2.70;;;;;;;-143.84;60.74;45064.31;5092937;28;20455;-75
2022/10/24 00:53:23;;;;;;;5.23;2.67;;;;;;;-143.84;60.78;45049.06;5092185;28;20440;-75
2022/10/24 00:55:53;;;;;;;3.77;2.07;;;;;;;-143.84;60.34;45073.81;5092724;28;20436;-75
2022/10/24 00:58:23;;;;;;;2.20;2.00;;;;;;;-143.84;60.00;45079.53;5093010;28;20483;-75
2022/10/24 01:00:52;;;;;;;5.83;2.00;;;;;;;-143.84;60.04;45050.97;5093217;28;20424;-75
2022/10/24 01:03:19;;;;;;;1.67;1.57;;;;;;;-143.84;59.75;45064.31;5093163;28;20442;-75
2022/10/24 01:06:07;;;;;;;2.93;1.77;;;;;;;-143.84;59.77;45117.63;5093199;28;20435;-75
2022/10/24 01:08:40;;;;;;;2.93;2.30;;;;;;;-143.84;59.65;45077.63;5092261;28;20481;-75
2022/10/24 01:11:19;;;;;;;4.90;1.83;;;;;;;-143.84;59.28;45089.06;5092624;28;20445;-75
2022/10/24 01:13:57;;;;;;;2.10;2.00;;;;;;;-143.84;59.01;45068.13;5092596;28;20442;-75
2022/10/24 01:16:34;;;;;;;2.90;2.03;;;;;;;-143.84;59.32;45045.25;5092761;28;20510;-75
2022/10/24 01:19:20;;;;;;;6.97;1.77;;;;;;;-143.84;59.30;45060.50;5092852;28;20440;-75
2022/10/24 01:21:53;;;;;;;2.80;1.90;;;;;;;-143.84;59.23;45049.06;5093050;28;20441;-75
2022/10/24 01:24:36;;;;;;;8.50;2.10;;;;;;;-143.84;59.18;45079.53;5092478;28;20472;-75
2022/10/24 01:27:23;;;;;;;2.80;2.20;;;;;;;-143.84;58.91;45077.63;5092613;28;20848;-75
2022/10/24 01:30:00;;;;;;;3.60;2.10;;;;;;;-143.84;59.13;45087.16;5092290;28;21009;-75
2022/10/24 01:32:36;;;;;;;2.00;1.90;;;;;;;-143.84;59.17;45092.88;5092517;28;20449;-75
2022/10/24 01:35:11;;;;;;;3.00;1.90;;;;;;;-143.84;58.96;45083.34;5092601;28;20437;-75
2022/10/24 01:37:45;;;;;;;3.13;1.80;;;;;;;-143.84;59.18;45073.81;5092061;28;20438;-75
2022/10/24 01:40:26;;;;;;;4.20;2.33;;;;;;;-143.84;59.18;45083.34;5092236;28;20515;-75
2022/10/24 01:42:58;;;;;;;2.47;1.87;;;;;;;-143.84;59.28;45089.06;5092245;28;20527;-75
2022/10/24 01:45:32;;;;;;;2.40;2.20;;;;;;;-143.84;59.13;45070.00;5092104;28;20441;-75
2022/10/24 01:48:05;;;;;;;12.57;2.20;;;;;;;-143.84;59.05;45100.47;5092160;28;20551;-75
2022/10/24 01:50:35;;;;;;;4.10;2.47;;;;;;;-143.84;58.81;45073.81;5091411;28;20549;-75
2022/10/24 01:53:03;;;;;;;8.50;1.97;;;;;;;-143.84;58.59;45060.50;5091897;28;20443;-75
2022/10/24 01:55:31;;;;;;;3.20;2.40;;;;;;;-143.84;58.39;45085.25;5091658;28;20485;-75
2022/10/24 01:57:59;;;;;;;1.83;1.73;;;;;;;-143.84;58.24;45070.00;5091827;28;20439;-75
2022/10/24 02:00:27;;;;;;;6.60;2.40;;;;;;;-143.84;58.21;45071.91;5091919;28;20508;-75
2022/10/24 02:02:57;;;;;;;13.93;2.07;;;;;;;-143.84;57.79;45073.81;5091670;28;20439;-75
2022/10/24 02:05:29;;;;;;;5.43;2.00;;;;;;;-143.84;57.69;45060.50;5091553;28;21116;-75
2022/10/24 02:08:01;;;;;;;8.60;2.30;;;;;;;-143.84;57.19;45104.28;5091812;28;20488;-75
2022/10/24 02:10:31;;;;;;;2.10;1.87;;;;;;;-143.84;57.53;45075.72;5091607;28;21059;-75
2022/10/24 02:13:01;;;;;;;2.90;2.07;;;;;;;-143.84;57.43;45071.91;5091823;28;20835;-75
2022/10/24 02:15:35;;;;;;;9.33;2.00;;;;;;;-143.84;57.33;45056.69;5091581;28;20447;-75
2022/10/24 02:18:03;;;;;;;2.60;1.77;;;;;;;-143.84;57.45;45079.53;5091986;28;21237;-75
2022/10/24 02:20:35;;;;;;;2.40;2.20;;;;;;;-143.84;57.26;45056.69;5091628;28;20517;-75
2022/10/24 02:23:10;;;;;;;9.87;2.80;;;;;;;-143.84;57.42;45068.13;5091121;28;20443;-75
2022/10/24 02:25:43;;;;;;;3.80;2.20;;;;;;;-143.84;57.48;45096.66;5091209;28;20502;-75
2022/10/24 02:28:15;;;;;;;2.67;2.47;;;;;;;-143.84;57.36;45054.78;5091184;28;20443;-75
2022/10/24 02:30:48;;;;;;;2.93;2.00;;;;;;;-143.84;57.38;45071.91;5091025;28;20551;-75
2022/10/24 02:33:17;;;;;;;2.63;1.70;;;;;;;-143.84;57.18;45068.13;5091190;28;20508;-75
2022/10/24 02:35:48;;;;;;;3.47;2.23;;;;;;;-143.84;57.54;45070.00;5090917;28;20435;-74
2022/10/24 02:38:22;;;;;;;1.90;1.80;;;;;;;-143.84;57.74;45056.69;5090583;28;20467;-74
2022/10/24 02:40:51;;;;;;;4.50;2.00;;;;;;;-143.84;57.89;45066.22;5090897;28;20495;-75
2022/10/24 02:43:21;;;;;;;4.60;2.17;;;;;;;-143.84;57.97;45085.25;5090862;28;21009;-75
2022/10/24 02:45:51;;;;;;;3.90;2.33;;;;;;;-143.84;57.80;45068.13;5090532;28;20524;-74
2022/10/24 02:48:23;;;;;;;3.10;2.70;;;;;;;-143.84;57.95;45070.00;5090613;28;20486;-75
2022/10/24 02:50:50;;;;;;;7.10;2.30;;;;;;;-143.84;58.27;45098.56;5089985;28;20825;-75
2022/10/24 02:53:21;;;;;;;5.43;3.20;;;;;;;-143.84;58.50;45085.25;5089796;28;20503;-75
2022/10/24 02:55:48;;;;;;;5.67;3.07;;;;;;;-143.84;58.74;45075.72;5089734;28;20439;-75
2022/10/24 02:58:16;;;;;;;7.23;3.30;;;;;;;-143.84;58.84;45094.78;5089396;28;20441;-75
2022/10/24 03:00:43;;;;;;;4.70;3.70;;;;;;;-143.84;58.72;45081.44;5089198;28;20444;-75
2022/10/24 03:03:12;;;;;;;3.43;3.13;;;;;;;-143.84;59.14;45081.44;5090113;28;20442;-75
2022/10/24 03:05:39;;;;;;;4.27;3.50;;;;;;;-143.84;59.47;45075.72;5089867;28;20438;-75
2022/10/24 03:08:06;;;;;;;3.37;3.17;;;;;;;-143.84;60.13;45096.66;5089952;28;20821;-75
2022/10/24 03:10:33;;;;;;;5.97;3.60;;;;;;;-143.84;61.78;45094.78;5089832;28;20602;-75
2022/10/24 03:13:02;;;;;;;6.77;3.20;;;;;;;-143.84;61.19;45073.81;5089777;28;20443;-75
2022/10/24 03:15:29;;;;;;;5.40;3.00;;;;;;;-143.84;60.61;45060.50;5089642;28;20525;-75
2022/10/24 03:17:56;;;;;;;5.17;2.60;;;;;;;-143.84;60.07;45090.97;5089392;28;20995;-75
2022/10/24 03:20:25;;;;;;;4.33;3.17;;;;;;;-143.84;60.32;45085.25;5089443;28;20481;-75
2022/10/24 03:22:52;;;;;;;9.37;2.50;;;;;;;-143.84;60.14;45087.16;5089823;28;20439;-75
2022/10/24 03:25:20;;;;;;;4.93;3.00;;;;;;;-143.84;60.21;45075.72;5089480;28;20442;-75
2022/10/24 03:27:47;;;;;;;2.43;2.33;;;;;;;-143.84;60.64;45077.63;5089568;28;20441;-74
2022/10/24 03:30:14;;;;;;;2.63;2.40;;;;;;;-143.84;60.98;45068.13;5089133;28;20843;-75
2022/10/24 03:32:41;;;;;;;4.83;3.00;;;;;;;-143.84;61.52;45073.81;5089118;28;20996;-75
2022/10/24 03:35:09;;;;;;;5.20;3.57;;;;;;;-143.84;65.13;45102.38;5089334;28;20430;-75
2022/10/24 03:37:38;;;;;;;4.07;3.67;;;;;;;-143.84;67.41;45098.56;5089317;28;20935;-75
2022/10/24 03:40:06;;;;;;;6.23;4.00;;;;;;;-143.84;67.67;45062.41;5089305;28;20450;-75
2022/10/24 03:42:34;;;;;;;4.73;3.97;;;;;;;-143.84;68.02;45092.88;5089065;28;20432;-75
2022/10/24 03:45:01;;;;;;;4.07;3.77;;;;;;;-143.84;68.35;45090.97;5089026;28;20921;-75
2022/10/24 03:47:28;;;;;;;5.10;2.63;;;;;;;-143.84;68.01;45083.34;5088950;28;20447;-74
2022/10/24 03:49:55;;;;;;;4.33;3.43;;;;;;;-143.84;68.31;45100.47;5060544;28;292883;-74
2022/10/24 03:52:22;;;;;;;10.37;4.40;;;;;;;-143.84;68.63;45085.25;5086790;28;20459;-75
2022/10/24 03:54:51;;;;;;;15.93;3.90;;;;;;;-143.84;68.74;45098.56;5089412;28;20509;-76
2022/10/24 03:57:18;;;;;;;8.83;4.63;;;;;;;-143.84;68.80;45085.25;5089673;28;20441;-76
2022/10/24 03:59:45;;;;;;;4.90;4.40;;;;;;;-143.84;69.05;45098.56;5089744;28;20460;-77
2022/10/24 04:02:13;;;;;;;4.90;3.90;;;;;;;-143.84;69.77;45070.00;5089365;28;20500;-76
2022/10/24 04:04:40;;;;;;;6.70;4.40;;;;;;;-143.84;70.06;45081.44;5089625;28;20439;-74
2022/10/24 04:07:08;;;;;;;6.07;4.23;;;;;;;-143.84;70.11;45098.56;5089108;28;20444;-74
2022/10/24 04:09:35;;;;;;;9.73;4.47;;;;;;;-143.84;69.76;45092.88;5089183;28;20518;-74
2022/10/24 04:12:04;;;;;;;4.60;3.23;;;;;;;-143.84;68.88;45089.06;5089016;28;20490;-74
2022/10/24 04:14:32;;;;;;;4.07;3.70;;;;;;;-143.84;68.18;45087.16;5087899;28;20452;-74
2022/10/24 04:16:59;;;;;;;4.93;2.93;;;;;;;-143.84;68.02;45102.38;5082749;28;20444;-75
2022/10/24 04:19:26;;;;;;;4.40;4.00;;;;;;;-143.84;68.24;45085.25;5074428;28;20872;-76
2022/10/24 04:21:54;;;;;;;6.63;3.57;;;;;;;-143.84;67.85;45102.38;5068755;28;20438;-75
2022/10/24 04:24:21;;;;;;;3.13;2.87;;;;;;;-143.84;66.56;45094.78;5069040;28;20499;-74
2022/10/24 04:26:48;;;;;;;5.43;3.10;;;;;;;-143.84;66.75;45108.09;5069656;28;20439;-71
2022/10/24 04:29:17;;;;;;;3.37;3.17;;;;;;;-143.84;67.53;45106.19;5069327;28;20875;-71
2022/10/24 04:31:44;;;;;;;12.10;3.90;;;;;;;-143.84;67.75;45081.44;5069524;28;20485;-70
2022/10/24 04:34:11;;;;;;;4.63;3.63;;;;;;;-143.84;67.28;45089.06;5069353;28;20437;-70
2022/10/24 04:36:38;;;;;;;17.33;4.27;;;;;;;-143.84;68.80;45070.00;5068910;28;20502;-70
2022/10/24 04:39:05;;;;;;;5.83;4.07;;;;;;;-143.84;70.49;45102.38;5069661;28;20435;-73
2022/10/24 04:41:33;;;;;;;8.30;4.40;;;;;;;-143.84;70.77;45087.16;5076094;28;20514;-74
2022/10/24 04:44:00;;;;;;;11.33;4.40;;;;;;;-143.84;70.43;45060.50;5084127;28;20526;-75
2022/10/24 04:46:28;;;;;;;4.87;3.80;;;;;;;-143.84;69.60;45100.47;5068973;28;20442;-75
2022/10/24 04:48:56;;;;;;;5.00;3.17;;;;;;;-143.84;68.95;45102.38;5068221;28;21081;-75
2022/10/24 04:51:23;;;;;;;10.33;3.13;;;;;;;-143.84;67.89;45110.00;5068454;28;20484;-73
2022/10/24 04:53:51;;;;;;;3.60;3.23;;;;;;;-143.84;67.51;45113.81;5068720;28;20470;-74
2022/10/24 04:56:18;;;;;;;11.93;3.20;;;;;;;-143.84;67.30;45050.97;5068525;28;20506;-73
2022/10/24 04:58:45;;;;;;;4.80;3.70;;;;;;;-143.84;67.27;45083.34;5068624;28;20495;-73
2022/10/24 05:01:13;;;;;;;5.97;3.63;;;;;;;-143.84;67.05;45085.25;5068671;28;20448;-73
2022/10/24 05:03:41;;;;;;;5.40;3.53;;;;;;;-143.84;67.18;45085.25;5068378;28;20536;-73
2022/10/24 05:06:09;;;;;;;5.20;2.97;;;;;;;-143.84;67.34;45117.63;5068163;28;20442;-73
2022/10/24 05:08:36;;;;;;;3.37;3.07;;;;;;;-143.84;67.43;45089.06;5068316;28;20440;-73
2022/10/24 05:11:03;;;;;;;2.67;2.47;;;;;;;-143.84;67.51;45100.47;5068406;28;20479;-74
2022/10/24 05:13:30;;;;;;;7.30;2.60;;;;;;;-143.84;67.54;45108.09;5068159;28;20435;-74
2022/10/24 05:15:58;;;;;;;11.47;2.80;;;;;;;-143.84;67.40;45121.44;5068554;28;20464;-73
2022/10/24 05:18:25;;;;;;;11.27;3.00;;;;;;;-143.84;67.38;45117.63;5068247;28;20940;-73
2022/10/24 05:20:56;;;;;;;3.73;2.80;;;;;;;-143.84;67.45;45089.06;5068113;28;20497;-73
2022/10/24 05:23:24;;;;;;;3.20;2.90;;;;;;;-143.84;67.78;45083.34;5068137;28;20477;-73
2022/10/24 05:25:51;;;;;;;4.80;2.87;;;;;;;-143.84;66.82;45102.38;5071116;28;20514;-74
2022/10/24 05:28:18;;;;;;;4.80;2.70;;;;;;;-143.84;66.36;45090.97;5071499;28;20505;-73
2022/10/24 05:30:46;;;;;;;3.17;2.87;;;;;;;-143.84;65.87;45096.66;5071383;28;20897;-73
2022/10/24 05:33:13;;;;;;;7.27;2.90;;;;;;;-143.84;66.07;45106.19;5071449;28;20446;-73
2022/10/24 05:35:41;;;;;;;5.70;2.77;;;;;;;-143.84;65.67;45094.78;5071112;28;20439;-73
2022/10/24 05:38:10;;;;;;;4.70;3.03;;;;;;;-143.84;65.14;45089.06;5070683;28;20439;-74
2022/10/24 05:40:37;;;;;;;3.93;3.33;;;;;;;-143.84;64.11;45092.88;5071421;28;20438;-74
2022/10/24 05:43:04;;;;;;;12.60;3.33;;;;;;;-143.84;63.50;45071.91;5071405;28;20452;-74
2022/10/24 05:45:31;;;;;;;7.43;3.37;;;;;;;-143.84;64.17;45087.16;5071429;28;20956;-74
2022/10/24 05:47:58;;;;;;;11.77;3.40;;;;;;;-143.84;64.00;45094.78;5071274;28;20478;-74
2022/10/24 05:50:25;;;;;;;8.30;3.67;;;;;;;-143.84;63.62;45094.78;5071161;28;20499;-74
2022/10/24 05:52:53;;;;;;;8.97;2.93;;;;;;;-143.84;61.39;45071.91;5071311;28;20447;-73
2022/10/24 05:55:21;;;;;;;2.93;2.73;;;;;;;-143.84;60.38;45050.97;5071217;28;20446;-73
2022/10/24 05:57:48;;;;;;;2.93;2.73;;;;;;;-143.84;58.40;45094.78;5071177;28;20449;-73
2022/10/24 06:00:17;;;;;;;4.67;3.37;;;;;;;-143.84;57.58;45071.91;5071162;28;20441;-73
2022/10/24 06:02:45;;;;;;;4.90;2.70;;;;;;;-143.84;58.18;45075.72;5071200;28;20432;-73
2022/10/24 06:05:14;;;;;;;3.80;2.70;;;;;;;-143.84;58.44;45068.13;5071286;28;20441;-73
2022/10/24 06:07:41;;;;;;;8.87;3.43;;;;;;;-143.84;55.79;45064.31;5071391;28;20476;-73
2022/10/24 06:10:10;;;;;;;6.10;2.83;;;;;;;-143.84;53.80;45070.00;5070863;28;20475;-73
2022/10/24 06:12:39;;;;;;;12.07;3.03;;;;;;;-143.84;54.07;45060.50;5070874;28;20440;-73
2022/10/24 06:15:09;;;;;;;13.10;2.70;;;;;;;-143.84;51.47;45037.66;5070694;28;20475;-73
2022/10/24 06:17:36;;;;;;;3.90;3.20;;;;;;;-143.84;50.19;45062.41;5070874;28;20452;-73
2022/10/24 06:20:05;;;;;;;10.50;3.10;;;;;;;-143.84;49.36;45070.00;5070697;28;20441;-73
2022/10/24 06:22:32;;;;;;;13.30;2.93;;;;;;;-143.84;49.52;45052.88;5071022;28;20429;-73
2022/10/24 06:25:00;;;;;;;6.93;3.00;;;;;;;-143.84;49.54;45052.88;5075857;28;20451;-73
2022/10/24 06:27:27;;;;;;;5.87;3.20;;;;;;;-143.84;46.97;45022.41;5091635;28;20507;-74
2022/10/24 06:29:56;;;;;;;5.50;2.67;;;;;;;-143.84;45.92;45012.88;5090849;28;20523;-74
2022/10/24 06:32:23;;;;;;;8.67;2.50;;;;;;;-143.84;46.43;45039.53;5091243;28;20444;-74
2022/10/24 06:34:51;;;;;;;4.17;2.70;;;;;;;-143.84;44.69;45024.31;5090562;28;20424;-74
2022/10/24 06:37:18;;;;;;;5.93;3.20;;;;;;;-143.84;44.38;45039.53;5089699;28;20501;-74
2022/10/24 06:39:46;;;;;;;14.13;7.10;;;;;;;-143.84;47.38;45037.66;5090772;28;20440;-74
2022/10/24 06:42:13;;;;;;;34.83;14.20;;;;;;;-143.84;47.60;45031.94;5090687;28;20451;-74
2022/10/24 06:44:41;;;;;;;40.73;17.53;;;;;;;-143.84;47.88;45031.94;5090662;28;20489;-74
2022/10/24 06:47:09;;;;;;;39.33;11.30;;;;;;;-143.84;47.30;45010.97;5090634;28;20440;-74
2022/10/24 06:49:36;;;;;;;21.07;9.60;;;;;;;-143.84;46.58;45052.88;5089823;28;20541;-74
2022/10/24 06:52:04;;;;;;;21.27;7.40;;;;;;;-143.84;45.22;45037.66;5090824;28;20476;-74
2022/10/24 06:54:32;;;;;;;8.93;5.73;;;;;;;-143.84;44.19;45020.50;5090581;28;20444;-74
2022/10/24 06:56:59;;;;;;;12.30;5.10;;;;;;;-143.84;44.15;45045.25;5090324;28;21037;-74
2022/10/24 06:59:27;;;;;;;10.53;5.30;;;;;;;-143.84;43.92;45022.41;5090944;28;20432;-74
2022/10/24 07:01:54;;;;;;;11.47;5.13;;;;;;;-143.84;44.14;45018.59;5090770;28;20441;-74
2022/10/24 07:04:23;;;;;;;19.27;5.60;;;;;;;-143.84;43.54;45028.13;5089986;28;20443;-74
2022/10/24 07:06:50;;;;;;;15.83;5.40;;;;;;;-143.84;42.72;45022.41;5090472;28;20435;-74
2022/10/24 07:09:17;;;;;;;11.90;4.80;;;;;;;-143.84;41.00;45041.44;5090097;28;20440;-74
2022/10/24 07:11:45;;;;;;;12.13;4.80;;;;;;;-143.84;40.68;44995.75;5090497;28;20468;-74
2022/10/24 07:14:12;;;;;;;12.83;5.70;;;;;;;-143.84;40.94;45022.41;5090017;28;20501;-74
2022/10/24 07:16:40;;;;;;;6.53;4.80;;;;;;;-143.84;41.13;44999.56;5090171;28;20424;-74
2022/10/24 07:19:08;;;;;;;12.13;4.83;;;;;;;-143.84;40.75;44984.31;5089452;28;20949;-73
2022/10/24 07:21:36;;;;;;;10.10;4.10;;;;;;;-143.84;41.14;45014.78;5089794;28;20440;-73
2022/10/24 07:24:04;;;;;;;8.73;4.13;;;;;;;-143.84;40.86;45005.28;5089702;28;20461;-74
2022/10/24 07:26:32;;;;;;;16.97;5.70;;;;;;;-143.84;39.79;45003.38;5090030;28;20965;-73
2022/10/24 07:29:01;;;;;;;19.47;8.07;;;;;;;-143.84;39.25;45024.31;5088630;28;20439;-74
2022/10/24 07:31:31;;;;;;;28.13;6.40;;;;;;;-143.84;39.24;45009.09;5089933;28;20476;-74
2022/10/24 07:33:58;;;;;;;12.03;6.20;;;;;;;-143.84;38.75;44974.81;5085274;28;20459;-74
2022/10/24 07:36:26;;;;;;;10.87;6.07;;;;;;;-143.84;39.58;45001.47;5070410;28;20481;-74
2022/10/24 07:38:57;;;;;;;13.57;5.77;;;;;;;-143.84;39.51;45003.38;5070407;28;20477;-74
2022/10/24 07:41:26;;;;;;;14.43;5.07;;;;;;;-143.84;39.95;44982.41;5068633;28;20460;-74
2022/10/24 07:43:53;;;;;;;12.03;6.00;;;;;;;-143.84;39.29;45005.28;5068557;28;20448;-74
2022/10/24 07:46:21;;;;;;;9.70;6.80;;;;;;;-143.84;39.62;44999.56;5069128;28;20445;-74
2022/10/24 07:48:49;;;;;;;8.63;5.63;;;;;;;-143.84;39.03;45007.19;5072286;28;20484;-73
2022/10/24 07:51:17;;;;;;;8.90;4.63;;;;;;;-143.84;39.41;44995.75;5069027;28;21017;-74
2022/10/24 07:53:45;;;;;;;10.93;4.70;;;;;;;-143.84;39.43;44972.91;5068697;28;20457;-74
2022/10/24 07:56:15;;;;;;;6.70;4.93;;;;;;;-143.84;40.18;45014.78;5068674;28;20468;-74
2022/10/24 07:58:43;;;;;;;8.13;5.27;;;;;;;-143.84;40.12;44993.84;5068478;28;20457;-74
2022/10/24 08:01:12;;;;;;;17.23;5.00;;;;;;;-143.84;40.00;45028.13;5068780;28;20837;-74
2022/10/24 08:03:40;;;;;;;9.60;5.00;;;;;;;-143.84;40.14;44999.56;5068436;28;20971;-74
2022/10/24 08:06:09;;;;;;;15.23;5.40;;;;;;;-143.84;40.23;45018.59;5068502;28;20461;-74
2022/10/24 08:08:37;;;;;;;19.30;6.57;;;;;;;-143.84;40.84;44997.66;5067947;28;20455;-74
2022/10/24 08:11:07;;;;;;;5.73;4.50;;;;;;;-143.84;38.54;45037.66;5067952;28;20480;-74
2022/10/24 08:13:37;;;;;;;6.97;4.83;;;;;;;-143.84;38.49;44990.03;5068068;28;21009;-74
2022/10/24 08:16:06;;;;;;;13.60;4.70;;;;;;;-143.84;38.37;44990.03;5069442;28;21030;-74
2022/10/24 08:18:34;;;;;;;11.57;4.90;;;;;;;-143.84;37.86;44988.13;5068044;28;20448;-74
2022/10/24 08:21:05;;;;;;;11.10;6.00;;;;;;;-143.84;37.54;44984.31;5068454;28;20444;-74
2022/10/24 08:23:34;;;;;;;15.93;4.87;;;;;;;-143.84;37.06;45003.38;5068053;28;20448;-74
2022/10/24 08:26:05;;;;;;;14.17;4.90;;;;;;;-143.84;36.76;45007.19;5069689;28;21006;-74
2022/10/24 08:28:32;;;;;;;13.00;4.70;;;;;;;-143.84;36.56;44995.75;5067868;28;20448;-74
2022/10/24 08:31:03;;;;;;;11.63;4.77;;;;;;;-143.84;36.66;44980.53;5068182;28;20484;-74
2022/10/24 08:33:31;;;;;;;14.53;5.10;;;;;;;-143.84;37.12;44971.00;5068201;28;20461;-74
2022/10/24 08:36:01;;;;;;;14.20;5.50;;;;;;;-143.84;36.21;45007.19;5070120;28;20843;-74
2022/10/24 08:38:30;;;;;;;10.70;6.20;;;;;;;-143.84;35.80;44972.91;5068006;28;20449;-74
2022/10/24 08:40:58;;;;;;;10.80;5.83;;;;;;;-143.84;35.79;44982.41;5067892;28;20472;-74
2022/10/24 08:43:26;;;;;;;12.83;6.10;;;;;;;-143.84;35.98;44984.31;5068122;28;20866;-74
2022/10/24 08:46:03;;;;;;;22.27;5.13;;;;;;;-143.84;36.04;45005.28;5070423;28;21253;-74
2022/10/24 08:48:40;;;;;;;5.90;5.10;;;;;;;-143.84;36.47;44980.53;5072218;28;20479;-74
2022/10/24 08:51:18;;;;;;;11.50;5.87;;;;;;;-143.84;37.28;44976.72;5068034;28;20483;-74
2022/10/24 08:53:49;;;;;;;6.53;5.53;;;;;;;-143.84;35.67;44974.81;5069618;28;20459;-74
2022/10/24 08:56:16;;;;;;;6.63;4.93;;;;;;;-143.84;34.94;44984.31;5070853;28;20453;-74
2022/10/24 08:58:45;;;;;;;6.53;4.10;;;;;;;-143.84;35.28;44988.13;5070978;28;20455;-74
2022/10/24 09:01:19;;;;;;;7.90;4.23;;;;;;;-143.84;35.42;44978.63;5072238;28;20441;-74
2022/10/24 09:03:51;;;;;;;6.50;4.10;;;;;;;-143.84;35.48;44984.31;5071960;28;20452;-74
2022/10/24 09:06:21;;;;;;;5.63;4.50;;;;;;;-143.84;34.90;44976.72;5074233;28;20452;-74
2022/10/24 09:08:52;;;;;;;8.60;3.70;;;;;;;-143.84;36.12;44991.94;5072180;28;20444;-74
2022/10/24 09:11:26;;;;;;;9.73;4.67;;;;;;;-143.84;35.05;44999.56;5071738;28;20551;-74
2022/10/24 09:13:55;;;;;;;8.90;3.97;;;;;;;-143.84;35.42;44971.00;5071944;28;20468;-73
2022/10/24 09:16:23;;;;;;;7.60;3.77;;;;;;;-143.84;36.10;44986.22;5071536;28;20510;-74
2022/10/24 09:18:55;;;;;;;7.33;3.40;;;;;;;-143.84;35.59;44980.53;5070965;28;20453;-74
2022/10/24 09:21:24;;;;;;;13.63;3.20;;;;;;;-143.84;35.33;44995.75;5071892;28;20879;-74
2022/10/24 09:23:52;;;;;;;14.57;3.20;;;;;;;-143.84;35.55;44997.66;5071888;28;20824;-74
2022/10/24 09:26:26;;;;;;;4.37;2.43;;;;;;;-143.84;36.33;45007.19;5074828;28;20455;-74
2022/10/24 09:28:55;;;;;;;6.17;2.70;;;;;;;-143.84;37.00;44965.28;5071166;28;20478;-74
2022/10/24 09:31:26;;;;;;;6.17;2.77;;;;;;;-143.84;37.36;45007.19;5071046;28;20496;-74
2022/10/24 09:33:59;;;;;;;5.90;3.30;;;;;;;-143.84;37.77;45016.69;5073613;28;20440;-74
2022/10/24 09:36:30;;;;;;;2.87;2.60;;;;;;;-143.84;37.28;44988.13;5071395;28;20468;-74
2022/10/24 09:39:05;;;;;;;5.00;3.00;;;;;;;-143.84;37.84;45005.28;5071053;28;20452;-74
2022/10/24 09:41:33;;;;;;;14.03;3.10;;;;;;;-143.84;37.83;44999.56;5071007;28;20976;-74
2022/10/24 09:44:03;;;;;;;6.13;3.40;;;;;;;-143.84;38.65;45009.09;5072781;28;20456;-74
2022/10/24 09:46:39;;;;;;;5.80;3.63;;;;;;;-143.84;39.37;44993.84;5071152;28;20460;-74
2022/10/24 09:49:21;;;;;;;12.17;4.00;;;;;;;-143.84;38.86;44999.56;5070927;28;20496;-74
2022/10/24 09:51:59;;;;;;;10.07;4.00;;;;;;;-143.84;38.76;44995.75;5071461;28;20496;-74
2022/10/24 09:54:28;;;;;;;6.43;4.53;;;;;;;-143.84;39.72;44990.03;5073061;28;20455;-74
2022/10/24 09:56:57;;;;;;;14.67;8.17;;;;;;;-143.84;41.94;44993.84;5071145;28;20548;-74
2022/10/24 09:59:33;;;;;;;14.50;8.20;;;;;;;-143.84;42.65;44993.84;5070523;28;20452;-74
2022/10/24 10:02:23;;;;;;;12.03;7.63;;;;;;;-143.84;43.93;44991.94;5072061;28;20567;-74
2022/10/24 10:05:19;;;;;;;23.67;8.07;;;;;;;-143.84;45.46;44991.94;5073192;28;20445;-74
2022/10/24 10:07:49;;;;;;;19.97;11.57;;;;;;;-143.84;45.62;44995.75;5070330;28;20938;-74
2022/10/24 10:10:27;;;;;;;18.03;9.10;;;;;;;-143.84;44.18;44999.56;5072331;28;20467;-74
2022/10/24 10:13:08;;;;;;;15.03;9.27;;;;;;;-143.84;45.10;44991.94;5071081;28;20476;-74
2022/10/24 10:15:39;;;;;;;23.63;9.57;;;;;;;-143.84;45.05;44990.03;5071183;28;20437;-74
2022/10/24 10:18:26;;;;;;;13.50;8.73;;;;;;;-143.84;44.26;44974.81;5070538;28;20507;-74
2022/10/24 10:21:08;;;;;;;15.37;9.83;;;;;;;-143.84;46.68;45014.78;5070749;28;21008;-74
2022/10/24 10:23:38;;;;;;;15.13;6.93;;;;;;;-143.84;44.61;45018.59;5070918;28;20514;-74
2022/10/24 10:26:11;;;;;;;6.13;4.90;;;;;;;-143.84;44.83;45012.88;5070104;28;20475;-74
2022/10/24 10:28:45;;;;;;;13.40;7.50;;;;;;;-143.84;44.78;45003.38;5070666;28;20440;-74
2022/10/24 10:31:13;;;;;;;27.50;11.90;;;;;;;-143.84;45.24;45022.41;5070737;28;20445;-74
2022/10/24 10:33:49;;;;;;;12.73;7.97;;;;;;;-143.84;45.77;44999.56;5070818;28;20437;-73
2022/10/24 10:36:22;;;;;;;14.97;7.80;;;;;;;-143.84;46.80;45016.69;5070556;28;20502;-73
2022/10/24 10:38:53;;;;;;;11.43;7.27;;;;;;;-143.84;45.87;45007.19;5070640;28;20440;-73
2022/10/24 10:41:34;;;;;;;10.33;5.80;;;;;;;-143.84;44.85;44995.75;5070759;28;20441;-73
2022/10/24 10:44:16;;;;;;;11.80;6.50;;;;;;;-143.84;44.86;45012.88;5070435;28;20429;-74
2022/10/24 10:46:56;;;;;;;11.70;7.30;;;;;;;-143.84;47.48;45003.38;5070804;28;20919;-74
2022/10/24 10:49:30;;;;;;;16.23;6.30;;;;;;;-143.84;47.12;45016.69;5070143;28;20502;-74
2022/10/24 10:52:05;;;;;;;10.23;6.20;;;;;;;-143.84;46.67;44984.31;5070048;28;20564;-74
2022/10/24 10:54:55;;;;;;;8.90;6.77;;;;;;;-143.84;46.64;44984.31;5070480;28;20445;-74
2022/10/24 10:57:27;;;;;;;7.97;5.70;;;;;;;-143.84;45.33;45012.88;5070788;28;20442;-74
2022/10/24 10:59:58;;;;;;;13.07;6.03;;;;;;;-143.84;44.53;45014.78;5070244;28;20445;-74
2022/10/24 11:03:07;;;;;;;13.43;5.70;;;;;;;-143.84;46.43;45014.78;5070167;28;20449;-74
2022/10/24 11:05:45;;;;;;;9.63;5.50;;;;;;;-143.84;46.99;45007.19;5059819;28;20457;-74
2022/10/24 11:08:39;;;;;;;8.20;5.73;;;;;;;-143.84;45.42;45007.19;5070105;28;20958;-73
2022/10/24 11:11:10;;;;;;;6.03;5.30;;;;;;;-143.84;45.29;44997.66;5070080;28;21010;-74
2022/10/24 11:13:42;;;;;;;13.23;3.77;;;;;;;-143.84;43.20;45010.97;5069829;28;20563;-73
2022/10/24 11:16:16;;;;;;;12.73;5.00;;;;;;;-143.84;44.75;45007.19;5069863;28;20433;-74
2022/10/24 11:18:48;;;;;;;11.70;5.20;;;;;;;-143.84;44.83;45003.38;5070015;28;20439;-73
2022/10/24 11:21:17;;;;;;;4.90;4.07;;;;;;;-143.84;45.78;45030.03;5069949;28;20506;-74
2022/10/24 11:23:52;;;;;;;8.20;4.80;;;;;;;-143.84;45.01;45020.50;5069260;28;20475;-74
2022/10/24 11:26:26;;;;;;;6.03;3.90;;;;;;;-143.84;44.46;45022.41;5069888;28;20802;-73
2022/10/24 11:29:01;;;;;;;7.80;4.00;;;;;;;-143.84;47.00;45022.41;5069650;28;20428;-74